MiSS Peggy — WCH4613 — position and weather

sailwx.info

Track history (hours):
 
Tides and Currents Weather Stations Pressure Air Temp Water Temp Dewpoint Dewpoint Depression Visibility Wind Speed Wind Dir Waves Ship Positions

MiSS Peggy

Owner: The Tug Miss Peggy, L.L.C., SUGAR LAND, TX. More information available from US FCC via Universal Licensing System and Coast Guard Vessel Documentation Center.

Last reported at 2017-Sep-24 10:29 UTC. Time now 2017-Sep-24 10:41 UTC.
Position N 29°47' W 095°04'.

Length 16 m.

Type: Tug. MMSI: 366935050.

Date/timePositionNaut miles runAvg speedWind from/ knotsBaromVisibWave heightAir tempDewpointWater temp
2017-Sep-24 10:29N 29°47' W 095°04'0 0.0
2017-Sep-24 09:59N 29°47' W 095°04'0 0.1
2017-Sep-24 09:17N 29°47' W 095°04'0 0.0
2017-Sep-24 06:31N 29°47' W 095°04'0 0.0
2017-Sep-24 05:35N 29°47' W 095°04'0 0.1
2017-Sep-24 05:30N 29°47' W 095°04'0 0.0
2017-Sep-24 04:07N 29°47' W 095°04'0 0.0
2017-Sep-24 03:59N 29°47' W 095°04'0 0.0
2017-Sep-24 03:30N 29°47' W 095°04'0 0.0
2017-Sep-24 03:00N 29°47' W 095°04'0 0.0
2017-Sep-23 23:36N 29°47' W 095°04'0 0.2
2017-Sep-23 23:24N 29°47' W 095°04'0 0.1
2017-Sep-23 22:35N 29°48' W 095°04'0 0.3
2017-Sep-23 22:30N 29°48' W 095°04'0 0.2
2017-Sep-23 22:00N 29°47' W 095°04'0 0.0
2017-Sep-23 21:29N 29°47' W 095°04'0 0.0
2017-Sep-23 21:00N 29°47' W 095°04'0 0.0
2017-Sep-23 20:30N 29°47' W 095°04'0 0.0
2017-Sep-22 02:00N 29°47' W 095°04'0 0.1
2017-Sep-22 00:51N 29°47' W 095°04'0 0.2
2017-Sep-22 00:21N 29°47' W 095°04'0 0.5
2017-Sep-21 23:59N 29°48' W 095°04'0 0.1
2017-Sep-21 23:26N 29°48' W 095°04'0 0.1
2017-Sep-21 23:00N 29°48' W 095°04'0 0.2
2017-Sep-21 22:27N 29°47' W 095°04'0 0.0
2017-Sep-21 22:00N 29°47' W 095°04'0 0.0
2017-Sep-21 21:30N 29°47' W 095°04'0 0.0
2017-Sep-21 21:00N 29°47' W 095°04'1 3.0
2017-Sep-21 20:30N 29°46' W 095°05'2 2.4
2017-Sep-21 19:51N 29°47' W 095°04'0 0.3
2017-Sep-21 19:17N 29°47' W 095°04'0 0.2
2017-Sep-21 18:54N 29°47' W 095°04'0 0.5
2017-Sep-21 18:29N 29°47' W 095°04'0 0.0
2017-Sep-21 17:36N 29°47' W 095°04'0 0.1
2017-Sep-21 17:30N 29°47' W 095°04'0 0.0
2017-Sep-21 16:31N 29°47' W 095°04'0 0.5
2017-Sep-21 16:18N 29°48' W 095°04'0 0.0
2017-Sep-21 13:51N 29°48' W 095°04'0 0.1
2017-Sep-21 12:17N 29°47' W 095°04'0 0.7
2017-Sep-21 11:57N 29°48' W 095°04'0 0.1
2017-Sep-21 11:26N 29°47' W 095°04'0 0.1
2017-Sep-21 10:12N 29°47' W 095°04'0 0.0
2017-Sep-21 10:00N 29°47' W 095°04'0 0.0
2017-Sep-21 05:51N 29°47' W 095°04'1 1.9
2017-Sep-21 05:19N 29°47' W 095°05'1 1.8
2017-Sep-21 04:58N 29°46' W 095°05'2 2.6
2017-Sep-21 04:22N 29°47' W 095°04'1 0.3
2017-Sep-21 01:51N 29°47' W 095°04'3 7.0
2017-Sep-21 01:28N 29°45' W 095°06'0 0.1
2017-Sep-21 00:42N 29°45' W 095°06'2 6.7
2017-Sep-21 00:24N 29°46' W 095°05'2 3.9
2017-Sep-21 00:00N 29°48' W 095°04'0 0.0
2017-Sep-20 23:27N 29°48' W 095°04'0 0.0
2017-Sep-20 22:57N 29°48' W 095°04'0 0.2
2017-Sep-20 22:30N 29°47' W 095°04'0 0.0
2017-Sep-20 22:00N 29°47' W 095°04'0 0.1
2017-Sep-20 21:23N 29°47' W 095°04'0 0.0
2017-Sep-20 19:32N 29°47' W 095°04'0 2.4
2017-Sep-20 19:28N 29°48' W 095°04'0 0.1
2017-Sep-20 17:42N 29°47' W 095°04'0 0.1
2017-Sep-20 17:25N 29°47' W 095°04'0 0.1
2017-Sep-20 16:28N 29°47' W 095°04'0 0.1
2017-Sep-20 15:46N 29°48' W 095°04'0 0.2
2017-Sep-20 15:23N 29°47' W 095°04'0 0.1
2017-Sep-20 14:53N 29°47' W 095°04'0 0.0
2017-Sep-20 13:58N 29°47' W 095°04'0 0.0
2017-Sep-20 13:29N 29°47' W 095°04'0 0.0
2017-Sep-20 13:00N 29°47' W 095°04'0 0.1
2017-Sep-20 12:16N 29°48' W 095°04'0 0.2
2017-Sep-20 10:57N 29°47' W 095°04'0 0.4
2017-Sep-20 10:31N 29°47' W 095°04'0 0.0
2017-Sep-20 10:01N 29°47' W 095°04'0 0.0
2017-Sep-20 09:30N 29°47' W 095°04'0 0.0
2017-Sep-20 09:01N 29°47' W 095°04'0 0.0
2017-Sep-20 08:30N 29°47' W 095°04'0 0.0
2017-Sep-20 05:52N 29°47' W 095°04'0 0.1
2017-Sep-20 05:28N 29°47' W 095°04'0 0.0
2017-Sep-20 05:00N 29°47' W 095°04'0 0.0
2017-Sep-20 04:17N 29°47' W 095°04'0 0.0
2017-Sep-20 03:55N 29°47' W 095°04'0 0.2
2017-Sep-20 03:18N 29°48' W 095°04'0 0.1
2017-Sep-20 03:00N 29°48' W 095°04'0 0.1
2017-Sep-20 01:35N 29°47' W 095°04'1 5.1
2017-Sep-20 01:28N 29°47' W 095°04'2 0.5
2017-Sep-19 21:49N 29°46' W 095°06'0 0.5
2017-Sep-19 21:28N 29°46' W 095°06'1 0.6
2017-Sep-19 19:21N 29°45' W 095°06'3 1.5
2017-Sep-19 17:09N 29°47' W 095°04'0 0.1
2017-Sep-19 16:21N 29°48' W 095°04'0 0.1
2017-Sep-19 16:00N 29°48' W 095°04'1 1.5
2017-Sep-19 15:25N 29°47' W 095°04'3 5.6
2017-Sep-19 14:57N 29°45' W 095°06'2 3.8
2017-Sep-19 14:30N 29°44' W 095°08'5 4.8
2017-Sep-19 13:28N 29°47' W 095°04'0 0.0
2017-Sep-19 10:57N 29°48' W 095°04'0 0.2
2017-Sep-19 10:25N 29°47' W 095°04'0 0.2
2017-Sep-19 10:00N 29°47' W 095°04'0 0.1
2017-Sep-19 09:30N 29°47' W 095°04'0 0.0
2017-Sep-19 07:18N 29°47' W 095°04'1 0.1
2017-Sep-19 03:44N 29°47' W 095°04'0 0.8
2017-Sep-19 03:21N 29°47' W 095°04'1 0.2
2017-Sep-18 22:49N 29°47' W 095°04'0 0.2
2017-Sep-18 22:30N 29°47' W 095°04'0 0.0
2017-Sep-18 21:53N 29°47' W 095°04'0 0.1
2017-Sep-18 21:08N 29°47' W 095°04'0 0.1
2017-Sep-18 21:00N 29°47' W 095°04'0 0.0
2017-Sep-18 19:02N 29°48' W 095°04'0 0.2
2017-Sep-18 18:56N 29°48' W 095°04'0 0.0
2017-Sep-18 18:04N 29°48' W 095°04'0 0.2
2017-Sep-18 18:00N 29°48' W 095°04'0 0.0
2017-Sep-18 17:14N 29°48' W 095°04'0 0.0
2017-Sep-18 17:00N 29°48' W 095°04'0 0.0
2017-Sep-18 15:03N 29°48' W 095°04'0 0.8
2017-Sep-18 15:00N 29°48' W 095°04'0 0.0
2017-Sep-18 14:31N 29°48' W 095°04'0 0.1
2017-Sep-18 13:22N 29°47' W 095°04'0 0.0
2017-Sep-18 13:00N 29°47' W 095°04'0 0.1
2017-Sep-18 12:10N 29°48' W 095°04'0 0.0
2017-Sep-18 11:10N 29°47' W 095°04'0 0.2
2017-Sep-18 11:00N 29°47' W 095°04'0 0.1
2017-Sep-18 10:28N 29°47' W 095°04'0 0.0
2017-Sep-18 10:00N 29°47' W 095°04'0 0.0
2017-Sep-18 09:30N 29°47' W 095°04'0 0.0
2017-Sep-18 09:00N 29°47' W 095°04'0 0.0
2017-Sep-18 08:30N 29°47' W 095°04'0 0.0
2017-Sep-18 07:46N 29°47' W 095°04'0 0.0
2017-Sep-18 07:24N 29°47' W 095°04'0 0.0
2017-Sep-18 06:46N 29°47' W 095°04'0 0.0
2017-Sep-18 06:26N 29°47' W 095°04'0 0.0
2017-Sep-18 06:00N 29°47' W 095°04'0 0.0
2017-Sep-18 05:10N 29°47' W 095°04'0 0.0
2017-Sep-18 04:21N 29°47' W 095°04'0 0.0
2017-Sep-18 03:46N 29°47' W 095°04'0 0.0
2017-Sep-18 03:25N 29°47' W 095°04'0 0.2
2017-Sep-18 02:47N 29°47' W 095°04'0 0.0
2017-Sep-18 02:30N 29°47' W 095°04'3 5.0
2017-Sep-18 01:59N 29°45' W 095°06'8 1.5
2017-Sep-17 20:40N 29°43' W 095°15'3 5.9
2017-Sep-17 20:06N 29°45' W 095°11'1 6.0
2017-Sep-17 20:00N 29°45' W 095°10'6 4.2
2017-Sep-17 18:28N 29°48' W 095°04'1 0.9
2017-Sep-17 17:21N 29°47' W 095°05'6 5.8
2017-Sep-17 16:23N 29°45' W 095°11'0 1.1
2017-Sep-17 16:00N 29°45' W 095°11'7 5.1
2017-Sep-17 14:39N 29°48' W 095°04'0 0.0
2017-Sep-17 14:27N 29°48' W 095°04'0 0.0
2017-Sep-17 13:51N 29°48' W 095°04'0 0.0
2017-Sep-17 13:30N 29°48' W 095°04'0 0.1
2017-Sep-17 11:07N 29°47' W 095°04'0 0.0
2017-Sep-17 10:58N 29°47' W 095°04'0 0.0
2017-Sep-17 10:31N 29°47' W 095°04'0 0.4
2017-Sep-17 10:00N 29°47' W 095°04'0 0.0
2017-Sep-17 07:05N 29°47' W 095°04'0 0.0
2017-Sep-17 07:01N 29°47' W 095°04'0 0.0
2017-Sep-17 06:30N 29°47' W 095°04'0 0.0
2017-Sep-17 05:58N 29°47' W 095°04'0 0.0
2017-Sep-17 05:30N 29°47' W 095°04'0 0.0
2017-Sep-17 05:00N 29°47' W 095°04'0 0.0
2017-Sep-17 04:27N 29°47' W 095°04'0 0.0
2017-Sep-17 03:59N 29°47' W 095°04'0 0.0
2017-Sep-17 03:21N 29°47' W 095°04'0 0.0
2017-Sep-17 03:00N 29°47' W 095°04'0 0.0
2017-Sep-17 02:19N 29°47' W 095°04'0 0.0
2017-Sep-17 02:00N 29°47' W 095°04'0 0.0
2017-Sep-17 01:28N 29°47' W 095°04'0 0.0
2017-Sep-16 23:14N 29°47' W 095°04'0 0.2
2017-Sep-16 22:37N 29°47' W 095°04'0 0.5
2017-Sep-16 22:29N 29°47' W 095°04'0 0.1
2017-Sep-16 22:01N 29°47' W 095°04'0 0.0
2017-Sep-16 21:30N 29°47' W 095°04'0 0.0
2017-Sep-16 21:00N 29°47' W 095°04'0 0.0
2017-Sep-16 20:30N 29°47' W 095°04'1 0.2
2017-Sep-16 17:33N 29°47' W 095°04'0 3.0
2017-Sep-16 17:30N 29°47' W 095°04'1 0.5
2017-Sep-16 15:51N 29°47' W 095°04'0 0.0
2017-Sep-16 14:48N 29°47' W 095°04'1 3.2
2017-Sep-16 14:25N 29°46' W 095°05'1 0.5
2017-Sep-16 12:06N 29°47' W 095°04'0 0.0
2017-Sep-16 11:58N 29°47' W 095°04'0 0.0
2017-Sep-16 11:30N 29°47' W 095°04'0 0.0
2017-Sep-16 11:00N 29°47' W 095°04'0 0.0
2017-Sep-16 10:30N 29°47' W 095°04'0 0.0
2017-Sep-16 10:00N 29°47' W 095°04'0 0.0
2017-Sep-16 09:30N 29°47' W 095°04'0 0.2
2017-Sep-16 08:58N 29°47' W 095°04'0 0.1
2017-Sep-16 08:30N 29°47' W 095°04'0 0.0
2017-Sep-16 07:25N 29°47' W 095°04'2 5.8
2017-Sep-16 06:59N 29°45' W 095°06'4 5.8
2017-Sep-16 06:13N 29°45' W 095°11'1 2.4
2017-Sep-16 05:55N 29°45' W 095°11'1 1.5
2017-Sep-16 05:30N 29°45' W 095°11'0 0.8
2017-Sep-16 04:54N 29°45' W 095°11'1 1.7
2017-Sep-16 04:30N 29°45' W 095°11'1 1.3
2017-Sep-16 04:00N 29°45' W 095°10'2 3.4
2017-Sep-16 03:30N 29°44' W 095°08'2 3.4
2017-Sep-16 02:48N 29°45' W 095°06'2 0.5
2017-Sep-15 23:34N 29°47' W 095°05'0 3.7
2017-Sep-15 23:28N 29°46' W 095°05'1 2.6
2017-Sep-15 22:59N 29°46' W 095°06'0 0.0
2017-Sep-15 22:06N 29°46' W 095°06'0 0.0
2017-Sep-15 21:57N 29°46' W 095°06'0 0.0
2017-Sep-15 21:29N 29°46' W 095°06'1 0.2
2017-Sep-15 15:30N 29°47' W 095°05'2 0.6
2017-Sep-15 12:54N 29°46' W 095°06'2 2.2
2017-Sep-15 11:50N 29°47' W 095°04'0 0.2
2017-Sep-15 11:26N 29°47' W 095°04'0 0.1
2017-Sep-15 10:22N 29°47' W 095°04'0 0.0
2017-Sep-15 10:01N 29°47' W 095°04'0 0.0
2017-Sep-15 09:30N 29°47' W 095°04'1 0.2
2017-Sep-15 06:10N 29°47' W 095°04'1 0.8
2017-Sep-15 05:15N 29°46' W 095°05'2 1.6
2017-Sep-15 04:18N 29°48' W 095°04'0 0.0
2017-Sep-15 04:00N 29°48' W 095°04'0 0.0
2017-Sep-15 03:30N 29°48' W 095°04'0 0.0
2017-Sep-15 03:00N 29°48' W 095°04'0 0.0
2017-Sep-15 02:30N 29°48' W 095°04'0 0.2
2017-Sep-15 02:00N 29°47' W 095°04'0 0.1
2017-Sep-15 01:20N 29°47' W 095°04'0 0.1
2017-Sep-14 23:01N 29°47' W 095°04'0 1.5
2017-Sep-14 23:00N 29°47' W 095°04'0 0.3
2017-Sep-14 22:30N 29°47' W 095°04'0 0.0
2017-Sep-14 22:00N 29°47' W 095°04'0 0.0
2017-Sep-14 21:07N 29°47' W 095°04'0 0.9
2017-Sep-14 21:00N 29°48' W 095°04'0 0.0
2017-Sep-14 20:30N 29°48' W 095°04'0 0.1
2017-Sep-14 19:53N 29°47' W 095°04'0 0.0
2017-Sep-14 19:30N 29°47' W 095°04'0 0.0
2017-Sep-14 19:00N 29°47' W 095°04'0 0.1
2017-Sep-14 18:06N 29°47' W 095°04'0 0.7
2017-Sep-14 17:59N 29°47' W 095°04'0 0.1
2017-Sep-14 17:24N 29°48' W 095°04'0 0.0
2017-Sep-14 17:00N 29°48' W 095°04'0 0.0
2017-Sep-14 16:30N 29°48' W 095°04'0 0.2
2017-Sep-14 15:33N 29°47' W 095°04'0 0.9
2017-Sep-14 15:30N 29°47' W 095°04'0 0.4
2017-Sep-14 14:56N 29°47' W 095°04'0 0.1
2017-Sep-14 14:19N 29°48' W 095°04'0 0.0
2017-Sep-14 13:53N 29°48' W 095°04'0 0.0
2017-Sep-14 13:30N 29°48' W 095°04'0 0.0
2017-Sep-14 13:00N 29°48' W 095°04'0 0.0
2017-Sep-14 12:16N 29°48' W 095°04'0 0.0
2017-Sep-14 12:00N 29°48' W 095°04'0 0.0
2017-Sep-14 11:30N 29°48' W 095°04'0 0.0
2017-Sep-14 11:00N 29°48' W 095°04'0 0.0
2017-Sep-14 10:30N 29°48' W 095°04'  
Track history (hours):
 
Tides and Currents Weather Stations Pressure Air Temp Water Temp Dewpoint Dewpoint Depression Visibility Wind Speed Wind Dir Waves Ship Positions

MiSS Peggy

Owner: The Tug Miss Peggy, L.L.C., SUGAR LAND, TX. More information available from US FCC via Universal Licensing System and Coast Guard Vessel Documentation Center.

Last reported at 2017-Sep-24 10:29 UTC. Time now 2017-Sep-24 10:41 UTC.
Position N 29°47' W 095°04'.

Length 16 m.

Type: Tug. MMSI: 366935050.

Date/timePositionNaut miles runAvg speedWind from/ knotsBaromVisibWave heightAir tempDewpointWater temp
2017-Sep-24 10:29N 29°47' W 095°04'0 0.0
2017-Sep-24 09:59N 29°47' W 095°04'0 0.1
2017-Sep-24 09:17N 29°47' W 095°04'0 0.0
2017-Sep-24 06:31N 29°47' W 095°04'0 0.0
2017-Sep-24 05:35N 29°47' W 095°04'0 0.1
2017-Sep-24 05:30N 29°47' W 095°04'0 0.0
2017-Sep-24 04:07N 29°47' W 095°04'0 0.0
2017-Sep-24 03:59N 29°47' W 095°04'0 0.0
2017-Sep-24 03:30N 29°47' W 095°04'0 0.0
2017-Sep-24 03:00N 29°47' W 095°04'0 0.0
2017-Sep-23 23:36N 29°47' W 095°04'0 0.2
2017-Sep-23 23:24N 29°47' W 095°04'0 0.1
2017-Sep-23 22:35N 29°48' W 095°04'0 0.3
2017-Sep-23 22:30N 29°48' W 095°04'0 0.2
2017-Sep-23 22:00N 29°47' W 095°04'0 0.0
2017-Sep-23 21:29N 29°47' W 095°04'0 0.0
2017-Sep-23 21:00N 29°47' W 095°04'0 0.0
2017-Sep-23 20:30N 29°47' W 095°04'0 0.0
2017-Sep-22 02:00N 29°47' W 095°04'0 0.1
2017-Sep-22 00:51N 29°47' W 095°04'0 0.2
2017-Sep-22 00:21N 29°47' W 095°04'0 0.5
2017-Sep-21 23:59N 29°48' W 095°04'0 0.1
2017-Sep-21 23:26N 29°48' W 095°04'0 0.1
2017-Sep-21 23:00N 29°48' W 095°04'0 0.2
2017-Sep-21 22:27N 29°47' W 095°04'0 0.0
2017-Sep-21 22:00N 29°47' W 095°04'0 0.0
2017-Sep-21 21:30N 29°47' W 095°04'0 0.0
2017-Sep-21 21:00N 29°47' W 095°04'1 3.0
2017-Sep-21 20:30N 29°46' W 095°05'2 2.4
2017-Sep-21 19:51N 29°47' W 095°04'0 0.3
2017-Sep-21 19:17N 29°47' W 095°04'0 0.2
2017-Sep-21 18:54N 29°47' W 095°04'0 0.5
2017-Sep-21 18:29N 29°47' W 095°04'0 0.0
2017-Sep-21 17:36N 29°47' W 095°04'0 0.1
2017-Sep-21 17:30N 29°47' W 095°04'0 0.0
2017-Sep-21 16:31N 29°47' W 095°04'0 0.5
2017-Sep-21 16:18N 29°48' W 095°04'0 0.0
2017-Sep-21 13:51N 29°48' W 095°04'0 0.1
2017-Sep-21 12:17N 29°47' W 095°04'0 0.7
2017-Sep-21 11:57N 29°48' W 095°04'0 0.1
2017-Sep-21 11:26N 29°47' W 095°04'0 0.1
2017-Sep-21 10:12N 29°47' W 095°04'0 0.0
2017-Sep-21 10:00N 29°47' W 095°04'0 0.0
2017-Sep-21 05:51N 29°47' W 095°04'1 1.9
2017-Sep-21 05:19N 29°47' W 095°05'1 1.8
2017-Sep-21 04:58N 29°46' W 095°05'2 2.6
2017-Sep-21 04:22N 29°47' W 095°04'1 0.3
2017-Sep-21 01:51N 29°47' W 095°04'3 7.0
2017-Sep-21 01:28N 29°45' W 095°06'0 0.1
2017-Sep-21 00:42N 29°45' W 095°06'2 6.7
2017-Sep-21 00:24N 29°46' W 095°05'2 3.9
2017-Sep-21 00:00N 29°48' W 095°04'0 0.0
2017-Sep-20 23:27N 29°48' W 095°04'0 0.0
2017-Sep-20 22:57N 29°48' W 095°04'0 0.2
2017-Sep-20 22:30N 29°47' W 095°04'0 0.0
2017-Sep-20 22:00N 29°47' W 095°04'0 0.1
2017-Sep-20 21:23N 29°47' W 095°04'0 0.0
2017-Sep-20 19:32N 29°47' W 095°04'0 2.4
2017-Sep-20 19:28N 29°48' W 095°04'0 0.1
2017-Sep-20 17:42N 29°47' W 095°04'0 0.1
2017-Sep-20 17:25N 29°47' W 095°04'0 0.1
2017-Sep-20 16:28N 29°47' W 095°04'0 0.1
2017-Sep-20 15:46N 29°48' W 095°04'0 0.2
2017-Sep-20 15:23N 29°47' W 095°04'0 0.1
2017-Sep-20 14:53N 29°47' W 095°04'0 0.0
2017-Sep-20 13:58N 29°47' W 095°04'0 0.0
2017-Sep-20 13:29N 29°47' W 095°04'0 0.0
2017-Sep-20 13:00N 29°47' W 095°04'0 0.1
2017-Sep-20 12:16N 29°48' W 095°04'0 0.2
2017-Sep-20 10:57N 29°47' W 095°04'0 0.4
2017-Sep-20 10:31N 29°47' W 095°04'0 0.0
2017-Sep-20 10:01N 29°47' W 095°04'0 0.0
2017-Sep-20 09:30N 29°47' W 095°04'0 0.0
2017-Sep-20 09:01N 29°47' W 095°04'0 0.0
2017-Sep-20 08:30N 29°47' W 095°04'0 0.0
2017-Sep-20 05:52N 29°47' W 095°04'0 0.1
2017-Sep-20 05:28N 29°47' W 095°04'0 0.0
2017-Sep-20 05:00N 29°47' W 095°04'0 0.0
2017-Sep-20 04:17N 29°47' W 095°04'0 0.0
2017-Sep-20 03:55N 29°47' W 095°04'0 0.2
2017-Sep-20 03:18N 29°48' W 095°04'0 0.1
2017-Sep-20 03:00N 29°48' W 095°04'0 0.1
2017-Sep-20 01:35N 29°47' W 095°04'1 5.1
2017-Sep-20 01:28N 29°47' W 095°04'2 0.5
2017-Sep-19 21:49N 29°46' W 095°06'0 0.5
2017-Sep-19 21:28N 29°46' W 095°06'1 0.6
2017-Sep-19 19:21N 29°45' W 095°06'3 1.5
2017-Sep-19 17:09N 29°47' W 095°04'0 0.1
2017-Sep-19 16:21N 29°48' W 095°04'0 0.1
2017-Sep-19 16:00N 29°48' W 095°04'1 1.5
2017-Sep-19 15:25N 29°47' W 095°04'3 5.6
2017-Sep-19 14:57N 29°45' W 095°06'2 3.8
2017-Sep-19 14:30N 29°44' W 095°08'5 4.8
2017-Sep-19 13:28N 29°47' W 095°04'0 0.0
2017-Sep-19 10:57N 29°48' W 095°04'0 0.2
2017-Sep-19 10:25N 29°47' W 095°04'0 0.2
2017-Sep-19 10:00N 29°47' W 095°04'0 0.1
2017-Sep-19 09:30N 29°47' W 095°04'0 0.0
2017-Sep-19 07:18N 29°47' W 095°04'1 0.1
2017-Sep-19 03:44N 29°47' W 095°04'0 0.8
2017-Sep-19 03:21N 29°47' W 095°04'1 0.2
2017-Sep-18 22:49N 29°47' W 095°04'0 0.2
2017-Sep-18 22:30N 29°47' W 095°04'0 0.0
2017-Sep-18 21:53N 29°47' W 095°04'0 0.1
2017-Sep-18 21:08N 29°47' W 095°04'0 0.1
2017-Sep-18 21:00N 29°47' W 095°04'0 0.0
2017-Sep-18 19:02N 29°48' W 095°04'0 0.2
2017-Sep-18 18:56N 29°48' W 095°04'0 0.0
2017-Sep-18 18:04N 29°48' W 095°04'0 0.2
2017-Sep-18 18:00N 29°48' W 095°04'0 0.0
2017-Sep-18 17:14N 29°48' W 095°04'0 0.0
2017-Sep-18 17:00N 29°48' W 095°04'0 0.0
2017-Sep-18 15:03N 29°48' W 095°04'0 0.8
2017-Sep-18 15:00N 29°48' W 095°04'0 0.0
2017-Sep-18 14:31N 29°48' W 095°04'0 0.1
2017-Sep-18 13:22N 29°47' W 095°04'0 0.0
2017-Sep-18 13:00N 29°47' W 095°04'0 0.1
2017-Sep-18 12:10N 29°48' W 095°04'0 0.0
2017-Sep-18 11:10N 29°47' W 095°04'0 0.2
2017-Sep-18 11:00N 29°47' W 095°04'0 0.1
2017-Sep-18 10:28N 29°47' W 095°04'0 0.0
2017-Sep-18 10:00N 29°47' W 095°04'0 0.0
2017-Sep-18 09:30N 29°47' W 095°04'0 0.0
2017-Sep-18 09:00N 29°47' W 095°04'0 0.0
2017-Sep-18 08:30N 29°47' W 095°04'0 0.0
2017-Sep-18 07:46N 29°47' W 095°04'0 0.0
2017-Sep-18 07:24N 29°47' W 095°04'0 0.0
2017-Sep-18 06:46N 29°47' W 095°04'0 0.0
2017-Sep-18 06:26N 29°47' W 095°04'0 0.0
2017-Sep-18 06:00N 29°47' W 095°04'0 0.0
2017-Sep-18 05:10N 29°47' W 095°04'0 0.0
2017-Sep-18 04:21N 29°47' W 095°04'0 0.0
2017-Sep-18 03:46N 29°47' W 095°04'0 0.0
2017-Sep-18 03:25N 29°47' W 095°04'0 0.2
2017-Sep-18 02:47N 29°47' W 095°04'0 0.0
2017-Sep-18 02:30N 29°47' W 095°04'3 5.0
2017-Sep-18 01:59N 29°45' W 095°06'8 1.5
2017-Sep-17 20:40N 29°43' W 095°15'3 5.9
2017-Sep-17 20:06N 29°45' W 095°11'1 6.0
2017-Sep-17 20:00N 29°45' W 095°10'6 4.2
2017-Sep-17 18:28N 29°48' W 095°04'1 0.9
2017-Sep-17 17:21N 29°47' W 095°05'6 5.8
2017-Sep-17 16:23N 29°45' W 095°11'0 1.1
2017-Sep-17 16:00N 29°45' W 095°11'7 5.1
2017-Sep-17 14:39N 29°48' W 095°04'0 0.0
2017-Sep-17 14:27N 29°48' W 095°04'0 0.0
2017-Sep-17 13:51N 29°48' W 095°04'0 0.0
2017-Sep-17 13:30N 29°48' W 095°04'0 0.1
2017-Sep-17 11:07N 29°47' W 095°04'0 0.0
2017-Sep-17 10:58N 29°47' W 095°04'0 0.0
2017-Sep-17 10:31N 29°47' W 095°04'0 0.4
2017-Sep-17 10:00N 29°47' W 095°04'0 0.0
2017-Sep-17 07:05N 29°47' W 095°04'0 0.0
2017-Sep-17 07:01N 29°47' W 095°04'0 0.0
2017-Sep-17 06:30N 29°47' W 095°04'0 0.0
2017-Sep-17 05:58N 29°47' W 095°04'0 0.0
2017-Sep-17 05:30N 29°47' W 095°04'0 0.0
2017-Sep-17 05:00N 29°47' W 095°04'0 0.0
2017-Sep-17 04:27N 29°47' W 095°04'0 0.0
2017-Sep-17 03:59N 29°47' W 095°04'0 0.0
2017-Sep-17 03:21N 29°47' W 095°04'0 0.0
2017-Sep-17 03:00N 29°47' W 095°04'0 0.0
2017-Sep-17 02:19N 29°47' W 095°04'0 0.0
2017-Sep-17 02:00N 29°47' W 095°04'0 0.0
2017-Sep-17 01:28N 29°47' W 095°04'0 0.0
2017-Sep-16 23:14N 29°47' W 095°04'0 0.2
2017-Sep-16 22:37N 29°47' W 095°04'0 0.5
2017-Sep-16 22:29N 29°47' W 095°04'0 0.1
2017-Sep-16 22:01N 29°47' W 095°04'0 0.0
2017-Sep-16 21:30N 29°47' W 095°04'0 0.0
2017-Sep-16 21:00N 29°47' W 095°04'0 0.0
2017-Sep-16 20:30N 29°47' W 095°04'1 0.2
2017-Sep-16 17:33N 29°47' W 095°04'0 3.0
2017-Sep-16 17:30N 29°47' W 095°04'1 0.5
2017-Sep-16 15:51N 29°47' W 095°04'0 0.0
2017-Sep-16 14:48N 29°47' W 095°04'1 3.2
2017-Sep-16 14:25N 29°46' W 095°05'1 0.5
2017-Sep-16 12:06N 29°47' W 095°04'0 0.0
2017-Sep-16 11:58N 29°47' W 095°04'0 0.0
2017-Sep-16 11:30N 29°47' W 095°04'0 0.0
2017-Sep-16 11:00N 29°47' W 095°04'0 0.0
2017-Sep-16 10:30N 29°47' W 095°04'0 0.0
2017-Sep-16 10:00N 29°47' W 095°04'0 0.0
2017-Sep-16 09:30N 29°47' W 095°04'0 0.2
2017-Sep-16 08:58N 29°47' W 095°04'0 0.1
2017-Sep-16 08:30N 29°47' W 095°04'0 0.0
2017-Sep-16 07:25N 29°47' W 095°04'2 5.8
2017-Sep-16 06:59N 29°45' W 095°06'4 5.8
2017-Sep-16 06:13N 29°45' W 095°11'1 2.4
2017-Sep-16 05:55N 29°45' W 095°11'1 1.5
2017-Sep-16 05:30N 29°45' W 095°11'0 0.8
2017-Sep-16 04:54N 29°45' W 095°11'1 1.7
2017-Sep-16 04:30N 29°45' W 095°11'1 1.3
2017-Sep-16 04:00N 29°45' W 095°10'2 3.4
2017-Sep-16 03:30N 29°44' W 095°08'2 3.4
2017-Sep-16 02:48N 29°45' W 095°06'2 0.5
2017-Sep-15 23:34N 29°47' W 095°05'0 3.7
2017-Sep-15 23:28N 29°46' W 095°05'1 2.6
2017-Sep-15 22:59N 29°46' W 095°06'0 0.0
2017-Sep-15 22:06N 29°46' W 095°06'0 0.0
2017-Sep-15 21:57N 29°46' W 095°06'0 0.0
2017-Sep-15 21:29N 29°46' W 095°06'1 0.2
2017-Sep-15 15:30N 29°47' W 095°05'2 0.6
2017-Sep-15 12:54N 29°46' W 095°06'2 2.2
2017-Sep-15 11:50N 29°47' W 095°04'0 0.2
2017-Sep-15 11:26N 29°47' W 095°04'0 0.1
2017-Sep-15 10:22N 29°47' W 095°04'0 0.0
2017-Sep-15 10:01N 29°47' W 095°04'0 0.0
2017-Sep-15 09:30N 29°47' W 095°04'1 0.2
2017-Sep-15 06:10N 29°47' W 095°04'1 0.8
2017-Sep-15 05:15N 29°46' W 095°05'2 1.6
2017-Sep-15 04:18N 29°48' W 095°04'0 0.0
2017-Sep-15 04:00N 29°48' W 095°04'0 0.0
2017-Sep-15 03:30N 29°48' W 095°04'0 0.0
2017-Sep-15 03:00N 29°48' W 095°04'0 0.0
2017-Sep-15 02:30N 29°48' W 095°04'0 0.2
2017-Sep-15 02:00N 29°47' W 095°04'0 0.1
2017-Sep-15 01:20N 29°47' W 095°04'0 0.1
2017-Sep-14 23:01N 29°47' W 095°04'0 1.5
2017-Sep-14 23:00N 29°47' W 095°04'0 0.3
2017-Sep-14 22:30N 29°47' W 095°04'0 0.0
2017-Sep-14 22:00N 29°47' W 095°04'0 0.0
2017-Sep-14 21:07N 29°47' W 095°04'0 0.9
2017-Sep-14 21:00N 29°48' W 095°04'0 0.0
2017-Sep-14 20:30N 29°48' W 095°04'0 0.1
2017-Sep-14 19:53N 29°47' W 095°04'0 0.0
2017-Sep-14 19:30N 29°47' W 095°04'0 0.0
2017-Sep-14 19:00N 29°47' W 095°04'0 0.1
2017-Sep-14 18:06N 29°47' W 095°04'0 0.7
2017-Sep-14 17:59N 29°47' W 095°04'0 0.1
2017-Sep-14 17:24N 29°48' W 095°04'0 0.0
2017-Sep-14 17:00N 29°48' W 095°04'0 0.0
2017-Sep-14 16:30N 29°48' W 095°04'0 0.2
2017-Sep-14 15:33N 29°47' W 095°04'0 0.9
2017-Sep-14 15:30N 29°47' W 095°04'0 0.4
2017-Sep-14 14:56N 29°47' W 095°04'0 0.1
2017-Sep-14 14:19N 29°48' W 095°04'0 0.0
2017-Sep-14 13:53N 29°48' W 095°04'0 0.0
2017-Sep-14 13:30N 29°48' W 095°04'0 0.0
2017-Sep-14 13:00N 29°48' W 095°04'0 0.0
2017-Sep-14 12:16N 29°48' W 095°04'0 0.0
2017-Sep-14 12:00N 29°48' W 095°04'0 0.0
2017-Sep-14 11:30N 29°48' W 095°04'0 0.0
2017-Sep-14 11:00N 29°48' W 095°04'0 0.0
2017-Sep-14 10:30N 29°48' W 095°04'  

Dump ship's entire track history